Time,TemperatureF,DewpointF,PressureIn,WindDirection,WindDirectionDegrees,WindSpeedMPH,WindSpeedGustMPH,Humidity,HourlyPrecipIn,Conditions,Clouds,dailyrainin,SoftwareType,DateUTC
2013-04-18 00:03:00,57.0,57.0,29.86,ESE,117,6.0,7.0,99,0.00,,,0.74,,2013-04-18 04:03:00,
2013-04-18 00:13:00,57.0,57.0,29.86,ESE,117,6.0,7.0,99,0.00,,,0.74,,2013-04-18 04:13:00,
2013-04-18 00:23:00,57.0,57.0,29.85,ENE,64,1.0,3.0,99,0.00,,,0.74,,2013-04-18 04:23:00,
2013-04-18 00:33:00,57.0,57.0,29.84,ENE,66,0.0,0.0,99,0.00,,,0.74,,2013-04-18 04:33:00,
2013-04-18 00:43:00,56.0,56.0,29.84,SE,133,5.0,7.0,99,0.00,,,0.74,,2013-04-18 04:43:00,
2013-04-18 00:53:00,56.0,56.0,29.84,SE,133,5.0,7.0,99,0.00,,,0.74,,2013-04-18 04:53:00,
2013-04-18 01:02:00,56.0,56.0,29.83,SSE,156,2.0,8.0,99,0.00,,,0.74,,2013-04-18 05:02:00,
2013-04-18 01:12:00,56.0,56.0,29.82,SE,133,0.0,0.0,99,0.00,,,0.74,,2013-04-18 05:12:00,
2013-04-18 01:22:00,56.0,56.0,29.82,SE,133,0.0,0.0,99,0.00,,,0.74,,2013-04-18 05:22:00,
2013-04-18 01:32:00,56.0,56.0,29.81,SE,124,1.0,0.0,99,0.00,,,0.74,,2013-04-18 05:32:00,
2013-04-18 01:42:00,56.0,56.0,29.81,ESE,109,5.0,6.0,99,0.00,,,0.74,,2013-04-18 05:42:00,
2013-04-18 01:52:00,56.0,56.0,29.81,ESE,109,5.0,6.0,99,0.00,,,0.74,,2013-04-18 05:52:00,
2013-04-18 02:02:00,56.0,56.0,29.79,East,92,1.0,0.0,99,0.00,,,0.74,,2013-04-18 06:02:00,
2013-04-18 02:12:00,56.0,56.0,29.78,ESE,123,0.0,8.0,99,0.00,,,0.74,,2013-04-18 06:12:00,
2013-04-18 02:22:00,56.0,56.0,29.78,ESE,123,0.0,8.0,99,0.00,,,0.74,,2013-04-18 06:22:00,
2013-04-18 02:32:00,57.0,57.0,29.77,SSE,155,2.0,8.0,99,0.00,,,0.74,,2013-04-18 06:32:00,
2013-04-18 02:42:00,59.0,59.0,29.76,SE,133,0.0,0.0,99,0.00,,,0.74,,2013-04-18 06:42:00,
2013-04-18 02:52:00,59.0,59.0,29.76,SE,133,0.0,0.0,99,0.00,,,0.74,,2013-04-18 06:52:00,
2013-04-18 03:02:00,59.0,59.0,29.75,SSE,154,2.0,7.0,99,0.00,,,0.74,,2013-04-18 07:02:00,
2013-04-18 03:12:00,60.0,60.0,29.74,SSE,158,0.0,0.0,99,0.00,,,0.74,,2013-04-18 07:12:00,
2013-04-18 03:22:00,60.0,60.0,29.74,SSE,158,0.0,0.0,99,0.00,,,0.74,,2013-04-18 07:22:00,
2013-04-18 03:32:00,61.0,61.0,29.73,South,176,7.0,9.0,99,0.00,,,0.74,,2013-04-18 07:32:00,
2013-04-18 03:42:00,63.0,63.0,29.72,South,191,8.0,12.0,99,0.00,,,0.72,,2013-04-18 07:42:00,
2013-04-18 03:52:00,63.0,63.0,29.72,South,191,8.0,12.0,99,0.00,,,0.72,,2013-04-18 07:52:00,
2013-04-18 04:02:00,64.0,64.0,29.72,SSW,194,7.0,12.0,99,0.00,,,0.72,,2013-04-18 08:02:00,
2013-04-18 04:12:00,64.0,64.0,29.71,SSW,196,9.0,13.0,99,0.00,,,0.72,,2013-04-18 08:12:00,
2013-04-18 04:22:00,64.0,64.0,29.71,SSW,196,9.0,13.0,99,0.00,,,0.72,,2013-04-18 08:22:00,
2013-04-18 04:32:00,64.0,64.0,29.71,SSW,201,12.0,14.0,99,0.00,,,0.72,,2013-04-18 08:32:00,
2013-04-18 04:42:00,65.0,65.0,29.71,SSW,197,9.0,13.0,99,0.00,,,0.72,,2013-04-18 08:42:00,
2013-04-18 04:52:00,65.0,65.0,29.71,SSW,197,9.0,13.0,99,0.00,,,0.72,,2013-04-18 08:52:00,
2013-04-18 05:02:00,65.0,65.0,29.70,SSW,195,7.0,10.0,99,0.00,,,0.72,,2013-04-18 09:02:00,
2013-04-18 05:12:00,65.0,65.0,29.70,SSW,193,9.0,12.0,99,0.00,,,0.72,,2013-04-18 09:12:00,
2013-04-18 05:22:00,65.0,65.0,29.70,SSW,193,9.0,12.0,99,0.00,,,0.72,,2013-04-18 09:22:00,
2013-04-18 05:32:00,65.0,65.0,29.70,SSW,201,7.0,10.0,99,0.00,,,0.72,,2013-04-18 09:32:00,
2013-04-18 05:42:00,66.0,66.0,29.70,SW,220,5.0,7.0,99,0.00,,,0.72,,2013-04-18 09:42:00,
2013-04-18 05:53:00,66.0,66.0,29.70,SW,220,5.0,7.0,99,0.00,,,0.72,,2013-04-18 09:53:00,
2013-04-18 06:03:00,67.0,66.0,29.69,SW,219,7.0,9.0,98,0.00,,,0.72,,2013-04-18 10:03:00,
2013-04-18 06:12:00,67.0,66.0,29.69,SW,219,7.0,9.0,98,0.00,,,0.72,,2013-04-18 10:12:00,
2013-04-18 06:23:00,69.0,67.0,29.68,SSW,210,8.0,13.0,94,0.00,,,0.72,,2013-04-18 10:23:00,
2013-04-18 06:32:00,69.0,67.0,29.67,SSW,205,9.0,14.0,93,0.00,,,0.72,,2013-04-18 10:32:00,
2013-04-18 06:42:00,69.0,67.0,29.67,SSW,205,9.0,14.0,93,0.00,,,0.72,,2013-04-18 10:42:00,
2013-04-18 06:52:00,69.0,67.0,29.67,SSW,205,9.0,13.0,93,0.00,,,0.72,,2013-04-18 10:52:00,
2013-04-18 07:02:00,69.0,67.0,29.67,SW,215,10.0,14.0,93,0.00,,,0.72,,2013-04-18 11:02:00,
2013-04-18 07:12:00,69.0,67.0,29.66,SW,221,10.0,25.0,94,0.00,,,0.72,,2013-04-18 11:12:00,
2013-04-18 07:22:00,69.0,67.0,29.66,SW,221,10.0,25.0,94,0.00,,,0.72,,2013-04-18 11:22:00,
2013-04-18 07:32:00,70.0,68.0,29.66,SW,214,13.0,20.0,93,0.00,,,0.72,,2013-04-18 11:32:00,
2013-04-18 07:42:00,70.0,68.0,29.66,SW,214,13.0,20.0,93,0.00,,,0.72,,2013-04-18 11:42:00,
2013-04-18 07:52:00,70.0,68.0,29.65,South,190,15.0,21.0,92,0.00,,,0.72,,2013-04-18 11:52:00,
2013-04-18 08:02:00,70.0,68.0,29.65,SSW,211,12.0,18.0,92,0.00,,,0.72,,2013-04-18 12:02:00,
2013-04-18 08:12:00,71.0,69.0,29.66,SW,225,13.0,25.0,92,0.00,,,0.72,,2013-04-18 12:12:00,
2013-04-18 08:22:00,71.0,69.0,29.66,SW,225,13.0,25.0,92,0.00,,,0.72,,2013-04-18 12:22:00,
2013-04-18 08:32:00,72.0,69.0,29.65,SSW,210,12.0,21.0,90,0.00,,,0.72,,2013-04-18 12:32:00,
2013-04-18 08:42:00,72.0,69.0,29.65,SSW,210,12.0,21.0,90,0.00,,,0.72,,2013-04-18 12:42:00,
2013-04-18 08:52:00,72.0,68.0,29.64,SW,217,12.0,22.0,88,0.00,,,0.72,,2013-04-18 12:52:00,
2013-04-18 09:02:00,72.0,69.0,29.62,SSW,206,14.0,20.0,89,0.00,,,0.72,,2013-04-18 13:02:00,
2013-04-18 09:12:00,72.0,69.0,29.61,SSW,203,16.0,26.0,89,0.00,,,0.72,,2013-04-18 13:12:00,
2013-04-18 09:22:00,72.0,69.0,29.61,SSW,203,16.0,26.0,89,0.00,,,0.72,,2013-04-18 13:22:00,
2013-04-18 09:32:00,73.0,70.0,29.62,SSW,209,13.0,22.0,89,0.00,,,0.72,,2013-04-18 13:32:00,
2013-04-18 09:42:00,73.0,69.0,29.63,SW,216,14.0,23.0,88,0.00,,,0.72,,2013-04-18 13:42:00,
2013-04-18 09:53:00,73.0,69.0,29.63,SW,216,14.0,23.0,88,0.00,,,0.72,,2013-04-18 13:53:00,
2013-04-18 10:02:00,73.0,69.0,29.64,SW,224,13.0,16.0,86,0.00,,,0.72,,2013-04-18 14:02:00,
2013-04-18 10:12:00,73.0,69.0,29.65,WSW,242,14.0,24.0,86,0.00,,,0.72,,2013-04-18 14:12:00,
2013-04-18 10:22:00,73.0,69.0,29.65,WSW,242,14.0,24.0,86,0.00,,,0.72,,2013-04-18 14:22:00,
2013-04-18 10:32:00,73.0,69.0,29.65,SW,216,15.0,17.0,87,0.00,,,0.72,,2013-04-18 14:32:00,
2013-04-18 10:42:00,73.0,69.0,29.64,WSW,246,9.0,17.0,87,0.00,,,0.72,,2013-04-18 14:42:00,
2013-04-18 10:52:00,73.0,69.0,29.64,WSW,246,9.0,17.0,87,0.00,,,0.72,,2013-04-18 14:52:00,
2013-04-18 11:02:00,73.0,69.0,29.64,SW,228,14.0,23.0,87,0.00,,,0.72,,2013-04-18 15:02:00,
2013-04-18 11:12:00,73.0,69.0,29.64,SW,228,14.0,23.0,87,0.00,,,0.72,,2013-04-18 15:12:00,
2013-04-18 11:22:00,73.0,68.0,29.66,WNW,295,12.0,21.0,85,0.00,,,0.72,,2013-04-18 15:22:00,
2013-04-18 11:33:00,69.0,66.0,29.67,West,268,6.0,10.0,89,0.08,,,0.80,,2013-04-18 15:33:00,
2013-04-18 11:42:00,65.0,64.0,29.67,West,272,3.0,9.0,98,0.16,,,0.88,,2013-04-18 15:42:00,
2013-04-18 11:53:00,65.0,64.0,29.67,West,272,3.0,9.0,98,0.16,,,0.88,,2013-04-18 15:53:00,
2013-04-18 12:03:00,64.0,64.0,29.68,SW,232,6.0,12.0,99,0.19,,,0.91,,2013-04-18 16:03:00,
2013-04-18 12:13:00,63.0,63.0,29.69,WSW,237,7.0,13.0,99,0.23,,,0.95,,2013-04-18 16:13:00,
2013-04-18 12:23:00,63.0,63.0,29.69,WSW,237,7.0,13.0,99,0.23,,,0.95,,2013-04-18 16:23:00,
2013-04-18 12:33:00,63.0,63.0,29.71,SW,229,6.0,12.0,99,0.17,,,0.97,,2013-04-18 16:33:00,
2013-04-18 12:43:00,63.0,63.0,29.70,West,269,6.0,10.0,99,0.10,,,0.98,,2013-04-18 16:43:00,
2013-04-18 12:53:00,63.0,63.0,29.70,West,269,6.0,10.0,99,0.10,,,0.98,,2013-04-18 16:53:00,
2013-04-18 13:02:00,63.0,63.0,29.69,West,275,7.0,10.0,99,0.09,,,1.00,,2013-04-18 17:02:00,
2013-04-18 13:12:00,63.0,63.0,29.68,SW,225,5.0,10.0,99,0.06,,,1.01,,2013-04-18 17:12:00,
2013-04-18 13:22:00,63.0,63.0,29.68,SW,225,5.0,10.0,99,0.06,,,1.01,,2013-04-18 17:22:00,
2013-04-18 13:33:00,63.0,63.0,29.70,SW,232,6.0,8.0,99,0.04,,,1.01,,2013-04-18 17:33:00,
2013-04-18 13:42:00,63.0,63.0,29.70,SW,216,8.0,12.0,99,0.05,,,1.03,,2013-04-18 17:42:00,
2013-04-18 13:52:00,63.0,63.0,29.70,SW,216,8.0,12.0,99,0.05,,,1.03,,2013-04-18 17:52:00,
2013-04-18 14:02:00,63.0,63.0,29.70,SSW,211,5.0,10.0,99,0.07,,,1.07,,2013-04-18 18:02:00,
2013-04-18 14:12:00,63.0,63.0,29.70,SW,222,7.0,10.0,99,0.10,,,1.11,,2013-04-18 18:12:00,
2013-04-18 14:22:00,63.0,63.0,29.70,SW,222,7.0,10.0,99,0.10,,,1.11,,2013-04-18 18:22:00,
2013-04-18 14:32:00,63.0,63.0,29.69,SSW,195,6.0,9.0,99,0.16,,,1.17,,2013-04-18 18:32:00,
2013-04-18 14:42:00,62.0,62.0,29.69,SSW,195,10.0,16.0,99,0.27,,,1.30,,2013-04-18 18:42:00,
2013-04-18 14:52:00,62.0,62.0,29.69,SSW,195,10.0,16.0,99,0.27,,,1.30,,2013-04-18 18:52:00,
2013-04-18 15:02:00,62.0,62.0,29.70,SSW,211,8.0,14.0,99,0.28,,,1.35,,2013-04-18 19:02:00,
2013-04-18 15:12:00,62.0,62.0,29.70,SSW,211,8.0,14.0,99,0.28,,,1.35,,2013-04-18 19:12:00,
2013-04-18 15:22:00,62.0,62.0,29.69,WSW,246,2.0,2.0,99,0.29,,,1.40,,2013-04-18 19:22:00,
2013-04-18 15:32:00,62.0,62.0,29.70,SSW,192,1.0,9.0,99,0.34,,,1.51,,2013-04-18 19:32:00,
2013-04-18 15:42:00,62.0,62.0,29.70,SSW,192,1.0,9.0,99,0.34,,,1.51,,2013-04-18 19:42:00,
2013-04-18 15:53:00,62.0,62.0,29.68,South,191,0.0,0.0,99,0.33,,,1.63,,2013-04-18 19:53:00,
2013-04-18 16:02:00,62.0,62.0,29.66,South,190,2.0,7.0,99,0.29,,,1.64,,2013-04-18 20:02:00,
2013-04-18 16:12:00,62.0,62.0,29.65,NNW,340,5.0,6.0,99,0.36,,,1.76,,2013-04-18 20:12:00,
2013-04-18 16:22:00,62.0,62.0,29.65,NNW,340,5.0,6.0,99,0.36,,,1.76,,2013-04-18 20:22:00,
2013-04-18 16:32:00,61.0,61.0,29.70,SW,217,0.0,0.0,99,0.45,,,1.96,,2013-04-18 20:32:00,
2013-04-18 16:42:00,61.0,61.0,29.69,West,271,0.0,0.0,99,0.84,,,2.47,,2013-04-18 20:42:00,
2013-04-18 16:52:00,61.0,61.0,29.69,West,271,0.0,0.0,99,0.84,,,2.47,,2013-04-18 20:52:00,
2013-04-18 17:02:00,61.0,61.0,29.67,West,271,0.0,0.0,99,0.97,,,2.61,,2013-04-18 21:02:00,
2013-04-18 17:12:00,61.0,61.0,29.66,West,271,0.0,0.0,99,0.89,,,2.65,,2013-04-18 21:12:00,
2013-04-18 17:22:00,61.0,61.0,29.66,West,271,0.0,0.0,99,0.89,,,2.65,,2013-04-18 21:22:00,
2013-04-18 17:32:00,61.0,61.0,29.65,West,271,0.0,0.0,99,0.73,,,2.69,,2013-04-18 21:32:00,
2013-04-18 17:43:00,62.0,62.0,29.65,West,271,0.0,0.0,99,0.24,,,2.71,,2013-04-18 21:43:00,
2013-04-18 17:53:00,62.0,62.0,29.65,West,271,0.0,0.0,99,0.24,,,2.71,,2013-04-18 21:53:00,
2013-04-18 18:02:00,62.0,62.0,29.65,South,181,6.0,9.0,99,0.11,,,2.72,,2013-04-18 22:02:00,
2013-04-18 18:13:00,62.0,62.0,29.67,South,177,3.0,7.0,99,0.11,,,2.76,,2013-04-18 22:13:00,
2013-04-18 18:22:00,62.0,62.0,29.67,South,177,3.0,7.0,99,0.11,,,2.76,,2013-04-18 22:22:00,
2013-04-18 18:32:00,62.0,62.0,29.65,SSE,155,2.0,7.0,99,0.10,,,2.79,,2013-04-18 22:32:00,
2013-04-18 18:42:00,61.0,61.0,29.63,SSE,149,0.0,7.0,99,0.13,,,2.84,,2013-04-18 22:42:00,
2013-04-18 18:52:00,61.0,61.0,29.63,SSE,149,0.0,7.0,99,0.13,,,2.84,,2013-04-18 22:52:00,
2013-04-18 19:03:00,61.0,61.0,29.64,South,169,6.0,12.0,99,0.14,,,2.86,,2013-04-18 23:03:00,
2013-04-18 19:11:00,61.0,61.0,29.63,South,178,7.0,8.0,99,0.12,,,2.88,,2013-04-18 23:11:00,
2013-04-18 19:21:00,61.0,61.0,29.63,South,178,7.0,8.0,99,0.12,,,2.88,,2013-04-18 23:21:00,
2013-04-18 19:32:00,61.0,61.0,29.62,South,188,7.0,10.0,99,0.11,,,2.90,,2013-04-18 23:32:00,
2013-04-18 19:42:00,61.0,61.0,29.60,SSE,167,6.0,13.0,99,0.06,,,2.90,,2013-04-18 23:42:00,
2013-04-18 19:52:00,61.0,61.0,29.60,SSE,167,6.0,13.0,99,0.06,,,2.90,,2013-04-18 23:52:00,
2013-04-18 20:01:00,61.0,61.0,29.60,South,180,5.0,12.0,99,0.04,,,2.89,,2013-04-19 00:01:00,
2013-04-18 20:12:00,61.0,61.0,29.59,South,177,7.0,9.0,99,0.02,,,2.89,,2013-04-19 00:12:00,
2013-04-18 20:21:00,61.0,61.0,29.59,South,177,7.0,9.0,99,0.02,,,2.89,,2013-04-19 00:21:00,
2013-04-18 20:32:00,61.0,61.0,29.58,SSE,166,6.0,10.0,99,0.01,,,2.90,,2013-04-19 00:32:00,
2013-04-18 20:42:00,61.0,61.0,29.59,South,191,7.0,10.0,99,0.05,,,2.86,,2013-04-19 00:42:00,
2013-04-18 20:52:00,61.0,61.0,29.59,South,191,7.0,10.0,99,0.05,,,2.86,,2013-04-19 00:52:00,
2013-04-18 21:01:00,62.0,62.0,29.59,SSW,194,9.0,14.0,99,0.07,,,2.79,,2013-04-19 01:01:00,
2013-04-18 21:11:00,62.0,62.0,29.59,South,187,8.0,14.0,99,0.10,,,2.47,,2013-04-19 01:11:00,
2013-04-18 21:21:00,62.0,62.0,29.59,South,187,8.0,14.0,99,0.10,,,2.47,,2013-04-19 01:21:00,
2013-04-18 21:31:00,62.0,62.0,29.57,South,186,3.0,14.0,99,0.13,,,2.35,,2013-04-19 01:31:00,
2013-04-18 21:42:00,62.0,62.0,29.57,South,186,5.0,9.0,99,0.13,,,2.36,,2013-04-19 01:42:00,
2013-04-18 21:52:00,62.0,62.0,29.57,South,186,5.0,9.0,99,0.13,,,2.36,,2013-04-19 01:52:00,
2013-04-18 22:01:00,62.0,62.0,29.58,South,170,7.0,10.0,99,0.14,,,2.39,,2013-04-19 02:01:00,
2013-04-18 22:11:00,62.0,62.0,29.58,South,170,7.0,10.0,99,0.14,,,2.39,,2013-04-19 02:11:00,
2013-04-18 22:21:00,62.0,62.0,29.57,SSW,208,3.0,9.0,99,0.15,,,2.43,,2013-04-19 02:21:00,
2013-04-18 22:32:00,61.0,61.0,29.61,WNW,292,10.0,23.0,99,0.17,,,2.49,,2013-04-19 02:32:00,
2013-04-18 22:42:00,56.0,56.0,29.60,WNW,293,7.0,10.0,99,0.15,,,2.51,,2013-04-19 02:42:00,
2013-04-18 22:52:00,56.0,56.0,29.60,WNW,293,7.0,10.0,99,0.15,,,2.51,,2013-04-19 02:52:00,
2013-04-18 23:01:00,55.0,55.0,29.59,WNW,287,2.0,5.0,99,0.15,,,2.54,,2013-04-19 03:01:00,
2013-04-18 23:11:00,54.0,54.0,29.59,WNW,300,9.0,16.0,99,0.14,,,2.57,,2013-04-19 03:11:00,
2013-04-18 23:21:00,54.0,54.0,29.59,WNW,300,9.0,16.0,99,0.14,,,2.57,,2013-04-19 03:21:00,
2013-04-18 23:32:00,53.0,53.0,29.61,WNW,285,9.0,17.0,99,0.10,,,2.59,,2013-04-19 03:32:00,
2013-04-18 23:43:00,51.0,51.0,29.60,WNW,287,9.0,13.0,99,0.11,,,2.62,,2013-04-19 03:43:00,
2013-04-18 23:53:00,51.0,51.0,29.60,WNW,287,9.0,13.0,99,0.11,,,2.62,,2013-04-19 03:53:00,